createdAt,value
2023-03-22T00:00:37.259Z,7.17
2023-03-22T00:03:14.814Z,7.00
2023-03-22T00:05:49.835Z,6.67
2023-03-22T00:08:25.051Z,7.20
2023-03-22T00:11:00.762Z,6.50
2023-03-22T00:13:36.788Z,6.73
2023-03-22T00:16:06.191Z,6.13
2023-03-22T00:18:42.761Z,5.97
2023-03-22T00:21:20.824Z,6.23
2023-03-22T00:23:50.933Z,6.30
2023-03-22T00:26:26.861Z,6.10
2023-03-22T00:29:01.582Z,5.97
2023-03-22T00:31:30.898Z,5.87
2023-03-22T00:34:07.500Z,5.67
2023-03-22T00:36:44.557Z,5.60
2023-03-22T00:39:13.082Z,5.23
2023-03-22T00:41:48.833Z,5.60
2023-03-22T00:44:23.845Z,5.43
2023-03-22T00:46:52.300Z,5.57
2023-03-22T00:49:28.594Z,4.80
2023-03-22T00:52:03.649Z,4.80
2023-03-22T00:54:32.168Z,5.00
2023-03-22T00:57:07.808Z,4.70
2023-03-22T00:59:38.537Z,5.80
2023-03-22T01:02:13.803Z,4.50
2023-03-22T01:04:52.668Z,4.83
2023-03-22T01:07:28.064Z,4.63
2023-03-22T01:10:09.598Z,4.90
2023-03-22T01:12:44.838Z,4.33
2023-03-22T01:15:13.878Z,4.20
2023-03-22T01:17:50.898Z,4.50
2023-03-22T01:20:27.657Z,4.40
2023-03-22T01:22:56.199Z,4.20
2023-03-22T01:25:31.527Z,4.37
2023-03-22T01:28:09.604Z,4.43
2023-03-22T01:30:40.156Z,4.43
2023-03-22T01:33:15.592Z,4.03
2023-03-22T01:35:52.649Z,3.80
2023-03-22T01:38:22.387Z,4.60
2023-03-22T01:40:57.569Z,4.07
2023-03-22T01:43:32.597Z,4.10
2023-03-22T01:46:01.421Z,4.20
2023-03-22T01:48:40.673Z,4.30
2023-03-22T01:51:13.558Z,4.10
2023-03-22T01:53:52.639Z,4.10
2023-03-22T01:56:29.893Z,4.07
2023-03-22T01:58:58.715Z,4.00
2023-03-22T02:01:33.969Z,4.03
2023-03-22T02:04:20.685Z,3.50
2023-03-22T02:06:58.181Z,3.60
2023-03-22T02:09:33.621Z,3.90
2023-03-22T02:12:13.609Z,3.80
2023-03-22T02:15:06.979Z,3.33
2023-03-22T02:17:46.960Z,3.70
2023-03-22T02:20:49.623Z,3.80
2023-03-22T02:24:03.937Z,3.57
2023-03-22T02:27:16.226Z,3.57
2023-03-22T02:29:59.640Z,3.77
2023-03-22T02:32:48.841Z,3.33
2023-03-22T02:35:48.088Z,3.30
2023-03-22T02:38:52.691Z,3.20
2023-03-22T02:41:35.933Z,3.30
2023-03-22T02:44:16.689Z,2.93
2023-03-22T02:46:48.703Z,3.70
2023-03-22T02:49:29.593Z,3.30
2023-03-22T02:52:02.991Z,3.57
2023-03-22T02:54:46.672Z,3.10
2023-03-22T02:57:21.470Z,3.27
2023-03-22T02:59:59.696Z,3.07
2023-03-22T03:02:30.020Z,3.50
2023-03-22T03:05:13.763Z,3.10
2023-03-22T03:07:52.957Z,3.30
2023-03-22T03:10:24.620Z,3.30
2023-03-22T03:12:59.700Z,3.23
2023-03-22T03:15:28.844Z,3.23
2023-03-22T03:18:34.999Z,3.27
2023-03-22T03:21:16.932Z,2.90
2023-03-22T03:23:54.188Z,3.50
2023-03-22T03:26:38.948Z,3.67
2023-03-22T03:29:13.474Z,3.43
2023-03-22T03:31:55.739Z,3.20
2023-03-22T03:34:27.118Z,3.13
2023-03-22T03:37:06.720Z,3.07
2023-03-22T03:39:38.767Z,3.10
2023-03-22T03:42:20.848Z,3.20
2023-03-22T03:44:51.465Z,3.00
2023-03-22T03:47:28.139Z,3.20
2023-03-22T03:49:56.773Z,3.07
2023-03-22T03:52:33.016Z,3.00
2023-03-22T03:55:01.712Z,2.87
2023-03-22T03:57:38.752Z,2.90
2023-03-22T04:00:09.494Z,3.17
2023-03-22T04:02:45.737Z,3.03
2023-03-22T04:05:27.717Z,2.60
2023-03-22T04:07:56.176Z,2.67
2023-03-22T04:10:25.126Z,2.80
2023-03-22T04:13:01.747Z,2.80
2023-03-22T04:15:30.496Z,2.90
2023-03-22T04:17:58.978Z,2.47
2023-03-22T04:20:35.126Z,2.50
2023-03-22T04:23:03.557Z,2.50
2023-03-22T04:25:40.837Z,2.40
2023-03-22T04:28:18.097Z,2.57
2023-03-22T04:30:51.291Z,2.80
2023-03-22T04:33:29.784Z,2.90
2023-03-22T04:36:04.752Z,2.30
2023-03-22T04:38:33.677Z,2.50
2023-03-22T04:41:08.811Z,2.40
2023-03-22T04:43:45.759Z,2.50
2023-03-22T04:46:15.348Z,3.10
2023-03-22T04:48:50.040Z,2.53
2023-03-22T04:51:25.756Z,2.70
2023-03-22T04:53:54.433Z,3.20
2023-03-22T04:56:29.778Z,2.70
2023-03-22T04:59:05.814Z,2.70
2023-03-22T05:01:35.696Z,2.60
2023-03-22T05:04:10.929Z,3.17
2023-03-22T05:06:46.609Z,2.60
2023-03-22T05:09:23.668Z,2.80
2023-03-22T05:11:59.123Z,3.30
2023-03-22T05:14:29.476Z,3.13
2023-03-22T05:16:58.604Z,2.87
2023-03-22T05:19:34.176Z,3.00
2023-03-22T05:22:02.812Z,3.20
2023-03-22T05:24:38.842Z,3.03
2023-03-22T05:27:13.858Z,2.80
2023-03-22T05:29:47.162Z,3.00
2023-03-22T05:32:24.805Z,3.30
2023-03-22T05:34:59.795Z,3.30
2023-03-22T05:37:30.315Z,3.70
2023-03-22T05:40:05.844Z,2.93
2023-03-22T05:42:41.514Z,2.90
2023-03-22T05:45:13.582Z,2.93
2023-03-22T05:47:48.885Z,3.10
2023-03-22T05:50:25.898Z,2.87
2023-03-22T05:52:54.360Z,2.77
2023-03-22T05:55:30.097Z,2.80
2023-03-22T05:58:04.856Z,2.43
2023-03-22T06:00:35.761Z,2.43
2023-03-22T06:03:11.923Z,3.00
2023-03-22T06:05:50.917Z,2.63
2023-03-22T06:08:26.705Z,2.63
2023-03-22T06:11:02.867Z,2.80
2023-03-22T06:13:31.779Z,2.80
2023-03-22T06:16:09.863Z,2.97
2023-03-22T06:18:45.166Z,3.27
2023-03-22T06:21:13.957Z,2.73
2023-03-22T06:23:49.921Z,3.17
2023-03-22T06:26:25.876Z,3.10
2023-03-22T06:28:54.448Z,3.10
2023-03-22T06:31:31.218Z,2.60
2023-03-22T06:34:06.987Z,2.53
2023-03-22T06:36:35.879Z,2.50
2023-03-22T06:39:12.321Z,2.70
2023-03-22T06:41:48.020Z,2.90
2023-03-22T06:44:17.273Z,2.80
2023-03-22T06:46:54.281Z,2.33
2023-03-22T06:49:30.336Z,2.73
2023-03-22T06:51:59.398Z,2.67
2023-03-22T06:54:34.928Z,2.20
2023-03-22T06:57:09.921Z,2.40
2023-03-22T06:59:38.651Z,2.67
2023-03-22T07:02:15.019Z,2.40
2023-03-22T07:04:50.579Z,2.70
2023-03-22T07:07:32.966Z,2.40
2023-03-22T07:10:08.216Z,2.97
2023-03-22T07:12:36.948Z,2.53
2023-03-22T07:15:13.164Z,2.93
2023-03-22T07:17:49.942Z,2.93
2023-03-22T07:20:18.797Z,2.70
2023-03-22T07:22:53.877Z,2.60
2023-03-22T07:25:29.030Z,2.53
2023-03-22T07:27:57.851Z,2.60
2023-03-22T07:30:35.356Z,2.30
2023-03-22T07:33:12.962Z,2.83
2023-03-22T07:35:41.806Z,2.73
2023-03-22T07:38:16.929Z,2.20
2023-03-22T07:40:52.024Z,2.57
2023-03-22T07:43:20.712Z,2.60
2023-03-22T07:45:56.937Z,4.70
2023-03-22T07:48:35.218Z,3.23
2023-03-22T07:51:03.859Z,2.40
2023-03-22T07:53:38.924Z,2.57
2023-03-22T07:56:08.550Z,2.40
2023-03-22T07:58:43.976Z,2.37
2023-03-22T08:01:18.970Z,2.40
2023-03-22T08:03:55.539Z,2.20
2023-03-22T08:06:38.973Z,2.10
2023-03-22T08:09:08.630Z,2.20
2023-03-22T08:11:45.947Z,2.43
2023-03-22T08:14:17.091Z,2.13
2023-03-22T08:16:55.028Z,2.30
2023-03-22T08:19:25.018Z,2.43
2023-03-22T08:22:00.061Z,1.90
2023-03-22T08:24:29.058Z,2.00
2023-03-22T08:27:04.098Z,2.17
2023-03-22T08:29:38.956Z,2.20
2023-03-22T08:32:07.544Z,2.30
2023-03-22T08:34:47.317Z,2.30
2023-03-22T08:37:16.212Z,2.10
2023-03-22T08:39:52.317Z,2.03
2023-03-22T08:42:27.918Z,2.10
2023-03-22T08:44:56.446Z,2.03
2023-03-22T08:47:31.307Z,2.10
2023-03-22T08:50:06.980Z,2.27
2023-03-22T08:52:36.122Z,2.10
2023-03-22T08:55:12.256Z,1.90
2023-03-22T08:57:48.045Z,2.13
2023-03-22T09:00:19.428Z,2.23
2023-03-22T09:02:55.083Z,2.40
2023-03-22T09:05:30.997Z,2.07
2023-03-22T09:08:06.145Z,2.40
2023-03-22T09:10:42.284Z,2.03
2023-03-22T09:13:13.377Z,1.90
2023-03-22T09:15:42.190Z,1.90
2023-03-22T09:18:17.039Z,1.83
2023-03-22T09:20:47.520Z,2.03
2023-03-22T09:23:23.373Z,2.10
2023-03-22T09:25:51.885Z,2.00
2023-03-22T09:28:20.919Z,1.90
2023-03-22T09:30:59.355Z,1.77
2023-03-22T09:33:27.922Z,1.90
2023-03-22T09:36:05.138Z,2.37
2023-03-22T09:38:42.172Z,1.60
2023-03-22T09:41:17.434Z,2.20
2023-03-22T09:43:58.193Z,1.60
2023-03-22T09:46:38.507Z,1.70
2023-03-22T09:49:14.441Z,1.87
2023-03-22T09:51:53.057Z,1.80
2023-03-22T09:54:30.889Z,2.00
2023-03-22T09:57:10.053Z,1.90
2023-03-22T09:59:45.708Z,2.10
2023-03-22T10:02:40.138Z,2.10
2023-03-22T10:05:25.752Z,1.97
2023-03-22T10:08:34.171Z,1.77
2023-03-22T10:11:09.088Z,1.87
2023-03-22T10:14:15.072Z,1.70
2023-03-22T10:16:52.076Z,1.80
2023-03-22T10:19:24.855Z,1.90
2023-03-22T10:22:03.071Z,1.50
2023-03-22T10:24:36.940Z,1.60
2023-03-22T10:27:20.072Z,1.30
2023-03-22T10:30:00.142Z,1.70
2023-03-22T10:32:45.242Z,1.90
2023-03-22T10:35:26.203Z,1.57
2023-03-22T10:38:00.024Z,1.60
2023-03-22T10:40:40.061Z,1.70
2023-03-22T10:43:16.849Z,1.70
2023-03-22T10:45:52.090Z,1.80
2023-03-22T10:48:29.303Z,1.93
2023-03-22T10:51:06.080Z,1.60
2023-03-22T10:53:49.361Z,1.80
2023-03-22T10:56:26.483Z,1.60
2023-03-22T10:59:07.274Z,1.50
2023-03-22T11:01:39.546Z,1.87
2023-03-22T11:04:16.174Z,1.67
2023-03-22T11:06:56.097Z,1.90
2023-03-22T11:09:32.444Z,1.70
2023-03-22T11:12:03.348Z,1.90
2023-03-22T11:14:42.133Z,1.80
2023-03-22T11:17:14.890Z,1.70
2023-03-22T11:19:59.474Z,1.73
2023-03-22T11:22:34.915Z,1.83
2023-03-22T11:25:11.126Z,1.67
2023-03-22T11:27:59.373Z,1.87
2023-03-22T11:30:30.323Z,1.93
2023-03-22T11:33:12.227Z,1.50
2023-03-22T11:35:41.228Z,1.33
2023-03-22T11:38:32.234Z,1.90
2023-03-22T11:41:03.570Z,1.50
2023-03-22T11:43:44.537Z,1.53
2023-03-22T11:46:20.206Z,1.67
2023-03-22T11:48:50.859Z,1.50
2023-03-22T11:51:36.444Z,1.40
2023-03-22T11:54:18.183Z,1.70
2023-03-22T11:56:50.860Z,1.60
2023-03-22T11:59:32.126Z,1.80
2023-03-22T12:02:06.599Z,1.80
2023-03-22T12:04:52.516Z,1.97
2023-03-22T12:07:24.776Z,1.73
2023-03-22T12:10:05.233Z,1.50
2023-03-22T12:12:38.564Z,1.70
2023-03-22T12:15:24.411Z,1.70
2023-03-22T12:17:59.976Z,1.80
2023-03-22T12:20:44.232Z,1.80
2023-03-22T12:23:17.082Z,1.80
2023-03-22T12:25:57.245Z,2.10
2023-03-22T12:28:34.732Z,1.80
2023-03-22T12:31:14.248Z,1.70
2023-03-22T12:33:55.175Z,1.90
2023-03-22T12:36:35.945Z,1.97
2023-03-22T12:39:15.458Z,1.87
2023-03-22T12:41:48.183Z,2.17
2023-03-22T12:44:27.239Z,1.87
2023-03-22T12:47:01.270Z,1.90
2023-03-22T12:49:40.230Z,2.00
2023-03-22T12:52:17.324Z,2.20
2023-03-22T12:54:55.231Z,1.80
2023-03-22T12:57:23.912Z,2.10
2023-03-22T13:00:01.270Z,2.00
2023-03-22T13:02:34.825Z,1.93
2023-03-22T13:05:11.230Z,1.93
2023-03-22T13:08:02.382Z,2.10
2023-03-22T13:11:05.285Z,1.70
2023-03-22T13:13:52.166Z,2.30
2023-03-22T13:16:31.357Z,2.17
2023-03-22T13:19:22.393Z,1.63
2023-03-22T13:21:58.313Z,2.23
2023-03-22T13:24:27.260Z,2.00
2023-03-22T13:26:57.083Z,2.03
2023-03-22T13:29:43.302Z,1.93
2023-03-22T13:32:31.107Z,2.10
2023-03-22T13:35:10.298Z,2.00
2023-03-22T13:37:47.927Z,2.17
2023-03-22T13:40:34.487Z,2.00
2023-03-22T13:43:15.227Z,1.77
2023-03-22T13:46:09.480Z,2.10
2023-03-22T13:48:51.354Z,2.17
2023-03-22T13:51:29.368Z,2.13
2023-03-22T13:54:10.339Z,2.00
2023-03-22T13:56:57.183Z,2.17
2023-03-22T13:59:38.633Z,2.03
2023-03-22T14:02:22.393Z,1.80
2023-03-22T14:05:01.275Z,1.90
2023-03-22T14:07:44.451Z,1.90
2023-03-22T14:10:26.276Z,1.90
2023-03-22T14:13:06.561Z,1.97
2023-03-22T14:15:40.429Z,2.13
2023-03-22T14:18:23.324Z,2.00
2023-03-22T14:20:56.135Z,2.27
